sensor_id;sensor_type;location;lat;lon;timestamp;P1;durP1;ratioP1;P2;durP2;ratioP2
25731;SDS011;13585;50.864;4.406;2023-03-12T00:01:37;5.68;;;2.83;;
25731;SDS011;13585;50.864;4.406;2023-03-12T00:04:04;4.60;;;3.05;;
25731;SDS011;13585;50.864;4.406;2023-03-12T00:06:30;4.10;;;2.70;;
25731;SDS011;13585;50.864;4.406;2023-03-12T00:08:56;4.82;;;2.90;;
25731;SDS011;13585;50.864;4.406;2023-03-12T00:11:22;4.70;;;2.97;;
25731;SDS011;13585;50.864;4.406;2023-03-12T00:13:49;5.03;;;3.28;;
25731;SDS011;13585;50.864;4.406;2023-03-12T00:16:16;5.45;;;3.33;;
25731;SDS011;13585;50.864;4.406;2023-03-12T00:18:42;4.80;;;2.88;;
25731;SDS011;13585;50.864;4.406;2023-03-12T00:21:08;3.40;;;2.53;;
25731;SDS011;13585;50.864;4.406;2023-03-12T00:23:34;5.60;;;2.95;;
25731;SDS011;13585;50.864;4.406;2023-03-12T00:26:01;5.32;;;2.90;;
25731;SDS011;13585;50.864;4.406;2023-03-12T00:28:28;4.55;;;3.00;;
25731;SDS011;13585;50.864;4.406;2023-03-12T00:30:54;3.95;;;2.60;;
25731;SDS011;13585;50.864;4.406;2023-03-12T00:33:20;5.10;;;2.88;;
25731;SDS011;13585;50.864;4.406;2023-03-12T00:35:45;5.72;;;2.70;;
25731;SDS011;13585;50.864;4.406;2023-03-12T00:38:11;4.90;;;2.90;;
25731;SDS011;13585;50.864;4.406;2023-03-12T00:40:36;4.72;;;2.85;;
25731;SDS011;13585;50.864;4.406;2023-03-12T00:43:03;4.20;;;2.63;;
25731;SDS011;13585;50.864;4.406;2023-03-12T00:45:29;4.45;;;2.80;;
25731;SDS011;13585;50.864;4.406;2023-03-12T00:47:54;3.05;;;2.42;;
25731;SDS011;13585;50.864;4.406;2023-03-12T00:50:20;6.25;;;3.03;;
25731;SDS011;13585;50.864;4.406;2023-03-12T00:52:46;4.57;;;2.63;;
25731;SDS011;13585;50.864;4.406;2023-03-12T00:55:11;4.43;;;3.10;;
25731;SDS011;13585;50.864;4.406;2023-03-12T00:57:37;4.70;;;2.95;;
25731;SDS011;13585;50.864;4.406;2023-03-12T01:00:03;3.80;;;2.85;;
25731;SDS011;13585;50.864;4.406;2023-03-12T01:02:34;4.45;;;2.75;;
25731;SDS011;13585;50.864;4.406;2023-03-12T01:05:00;5.68;;;3.20;;
25731;SDS011;13585;50.864;4.406;2023-03-12T01:07:25;4.03;;;2.47;;
25731;SDS011;13585;50.864;4.406;2023-03-12T01:09:51;4.68;;;2.80;;
25731;SDS011;13585;50.864;4.406;2023-03-12T01:12:17;3.83;;;2.72;;
25731;SDS011;13585;50.864;4.406;2023-03-12T01:14:42;4.10;;;2.60;;
25731;SDS011;13585;50.864;4.406;2023-03-12T01:17:08;4.85;;;2.72;;
25731;SDS011;13585;50.864;4.406;2023-03-12T01:19:34;5.03;;;2.50;;
25731;SDS011;13585;50.864;4.406;2023-03-12T01:22:00;3.70;;;2.70;;
25731;SDS011;13585;50.864;4.406;2023-03-12T01:24:26;4.75;;;2.83;;
25731;SDS011;13585;50.864;4.406;2023-03-12T01:26:52;4.07;;;2.50;;
25731;SDS011;13585;50.864;4.406;2023-03-12T01:29:17;5.40;;;2.83;;
25731;SDS011;13585;50.864;4.406;2023-03-12T01:31:43;4.13;;;2.28;;
25731;SDS011;13585;50.864;4.406;2023-03-12T01:34:09;5.47;;;2.70;;
25731;SDS011;13585;50.864;4.406;2023-03-12T01:36:36;4.15;;;2.60;;
25731;SDS011;13585;50.864;4.406;2023-03-12T01:39:02;3.60;;;2.40;;
25731;SDS011;13585;50.864;4.406;2023-03-12T01:41:28;3.40;;;2.28;;
25731;SDS011;13585;50.864;4.406;2023-03-12T01:43:56;2.95;;;2.15;;
25731;SDS011;13585;50.864;4.406;2023-03-12T01:46:33;5.53;;;2.20;;
25731;SDS011;13585;50.864;4.406;2023-03-12T01:49:01;4.07;;;2.28;;
25731;SDS011;13585;50.864;4.406;2023-03-12T01:51:50;4.45;;;2.53;;
25731;SDS011;13585;50.864;4.406;2023-03-12T01:54:37;3.20;;;2.30;;
25731;SDS011;13585;50.864;4.406;2023-03-12T01:57:07;3.65;;;2.35;;
25731;SDS011;13585;50.864;4.406;2023-03-12T01:59:38;5.80;;;2.55;;
25731;SDS011;13585;50.864;4.406;2023-03-12T02:02:16;3.50;;;2.30;;
25731;SDS011;13585;50.864;4.406;2023-03-12T02:04:47;4.20;;;2.38;;
25731;SDS011;13585;50.864;4.406;2023-03-12T02:07:15;5.13;;;2.05;;
25731;SDS011;13585;50.864;4.406;2023-03-12T02:09:42;3.72;;;2.50;;
25731;SDS011;13585;50.864;4.406;2023-03-12T02:12:13;3.00;;;2.08;;
25731;SDS011;13585;50.864;4.406;2023-03-12T02:14:40;3.35;;;2.20;;
25731;SDS011;13585;50.864;4.406;2023-03-12T02:17:06;3.22;;;2.25;;
25731;SDS011;13585;50.864;4.406;2023-03-12T02:19:45;3.75;;;2.33;;
25731;SDS011;13585;50.864;4.406;2023-03-12T02:22:20;3.53;;;2.20;;
25731;SDS011;13585;50.864;4.406;2023-03-12T02:24:49;4.63;;;2.08;;
25731;SDS011;13585;50.864;4.406;2023-03-12T02:27:48;3.35;;;1.98;;
25731;SDS011;13585;50.864;4.406;2023-03-12T02:30:15;3.22;;;1.92;;
25731;SDS011;13585;50.864;4.406;2023-03-12T02:32:43;3.67;;;1.95;;
25731;SDS011;13585;50.864;4.406;2023-03-12T02:35:12;3.95;;;2.15;;
25731;SDS011;13585;50.864;4.406;2023-03-12T02:37:52;3.22;;;1.90;;
25731;SDS011;13585;50.864;4.406;2023-03-12T02:40:26;2.90;;;1.85;;
25731;SDS011;13585;50.864;4.406;2023-03-12T02:43:04;2.85;;;1.70;;
25731;SDS011;13585;50.864;4.406;2023-03-12T02:45:31;2.60;;;1.90;;
25731;SDS011;13585;50.864;4.406;2023-03-12T02:48:00;3.13;;;1.80;;
25731;SDS011;13585;50.864;4.406;2023-03-12T02:50:26;2.55;;;2.00;;
25731;SDS011;13585;50.864;4.406;2023-03-12T02:52:52;3.65;;;1.90;;
25731;SDS011;13585;50.864;4.406;2023-03-12T02:55:17;3.00;;;2.10;;
25731;SDS011;13585;50.864;4.406;2023-03-12T02:57:43;2.45;;;1.88;;
25731;SDS011;13585;50.864;4.406;2023-03-12T03:00:09;2.63;;;1.70;;
25731;SDS011;13585;50.864;4.406;2023-03-12T03:02:37;2.78;;;1.55;;
25731;SDS011;13585;50.864;4.406;2023-03-12T03:05:06;3.65;;;1.63;;
25731;SDS011;13585;50.864;4.406;2023-03-12T03:07:32;3.28;;;2.00;;
25731;SDS011;13585;50.864;4.406;2023-03-12T03:09:57;2.67;;;1.73;;
25731;SDS011;13585;50.864;4.406;2023-03-12T03:12:28;2.38;;;1.60;;
25731;SDS011;13585;50.864;4.406;2023-03-12T03:14:54;3.55;;;1.83;;
25731;SDS011;13585;50.864;4.406;2023-03-12T03:17:20;2.88;;;1.70;;
25731;SDS011;13585;50.864;4.406;2023-03-12T03:19:48;1.95;;;1.63;;
25731;SDS011;13585;50.864;4.406;2023-03-12T03:22:14;2.60;;;1.80;;
25731;SDS011;13585;50.864;4.406;2023-03-12T03:24:40;3.00;;;1.70;;
25731;SDS011;13585;50.864;4.406;2023-03-12T03:27:06;3.88;;;1.75;;
25731;SDS011;13585;50.864;4.406;2023-03-12T03:29:31;3.17;;;1.80;;
25731;SDS011;13585;50.864;4.406;2023-03-12T03:31:57;3.15;;;1.60;;
25731;SDS011;13585;50.864;4.406;2023-03-12T03:34:24;2.97;;;1.63;;
25731;SDS011;13585;50.864;4.406;2023-03-12T03:36:49;4.13;;;1.77;;
25731;SDS011;13585;50.864;4.406;2023-03-12T03:39:15;3.38;;;1.70;;
25731;SDS011;13585;50.864;4.406;2023-03-12T03:41:41;3.30;;;1.70;;
25731;SDS011;13585;50.864;4.406;2023-03-12T03:44:06;2.78;;;1.58;;
25731;SDS011;13585;50.864;4.406;2023-03-12T03:46:32;2.58;;;1.42;;
25731;SDS011;13585;50.864;4.406;2023-03-12T03:49:01;2.42;;;1.55;;
25731;SDS011;13585;50.864;4.406;2023-03-12T03:51:27;2.35;;;1.50;;
25731;SDS011;13585;50.864;4.406;2023-03-12T03:53:53;2.65;;;1.85;;
25731;SDS011;13585;50.864;4.406;2023-03-12T03:56:18;1.40;;;1.25;;
25731;SDS011;13585;50.864;4.406;2023-03-12T03:58:44;2.42;;;1.20;;
25731;SDS011;13585;50.864;4.406;2023-03-12T04:01:13;1.90;;;1.40;;
25731;SDS011;13585;50.864;4.406;2023-03-12T04:03:39;2.22;;;1.40;;
25731;SDS011;13585;50.864;4.406;2023-03-12T04:06:05;1.60;;;1.27;;
25731;SDS011;13585;50.864;4.406;2023-03-12T04:08:32;2.28;;;1.40;;
25731;SDS011;13585;50.864;4.406;2023-03-12T04:11:05;3.13;;;1.50;;
25731;SDS011;13585;50.864;4.406;2023-03-12T04:13:32;2.50;;;1.70;;
25731;SDS011;13585;50.864;4.406;2023-03-12T04:15:58;1.88;;;1.35;;
25731;SDS011;13585;50.864;4.406;2023-03-12T04:18:24;3.03;;;1.48;;
25731;SDS011;13585;50.864;4.406;2023-03-12T04:20:49;2.45;;;1.45;;
25731;SDS011;13585;50.864;4.406;2023-03-12T04:23:15;3.08;;;1.50;;
25731;SDS011;13585;50.864;4.406;2023-03-12T04:25:41;2.70;;;1.17;;
25731;SDS011;13585;50.864;4.406;2023-03-12T04:28:07;2.15;;;1.20;;
25731;SDS011;13585;50.864;4.406;2023-03-12T04:30:32;2.47;;;1.23;;
25731;SDS011;13585;50.864;4.406;2023-03-12T04:32:58;2.20;;;1.33;;
25731;SDS011;13585;50.864;4.406;2023-03-12T04:35:24;1.73;;;1.40;;
25731;SDS011;13585;50.864;4.406;2023-03-12T04:37:50;2.47;;;1.42;;
25731;SDS011;13585;50.864;4.406;2023-03-12T04:40:15;2.05;;;1.38;;
25731;SDS011;13585;50.864;4.406;2023-03-12T04:42:43;2.42;;;1.40;;
25731;SDS011;13585;50.864;4.406;2023-03-12T04:45:09;1.88;;;1.42;;
25731;SDS011;13585;50.864;4.406;2023-03-12T04:47:35;2.03;;;1.10;;
25731;SDS011;13585;50.864;4.406;2023-03-12T04:50:00;4.32;;;1.50;;
25731;SDS011;13585;50.864;4.406;2023-03-12T04:52:26;2.75;;;1.40;;
25731;SDS011;13585;50.864;4.406;2023-03-12T04:54:52;1.90;;;1.10;;
25731;SDS011;13585;50.864;4.406;2023-03-12T04:57:18;1.65;;;0.98;;
25731;SDS011;13585;50.864;4.406;2023-03-12T04:59:44;1.67;;;1.30;;
25731;SDS011;13585;50.864;4.406;2023-03-12T05:02:10;2.20;;;1.27;;
25731;SDS011;13585;50.864;4.406;2023-03-12T05:04:35;1.90;;;1.20;;
25731;SDS011;13585;50.864;4.406;2023-03-12T05:07:01;2.08;;;1.20;;
25731;SDS011;13585;50.864;4.406;2023-03-12T05:09:27;2.35;;;1.38;;
25731;SDS011;13585;50.864;4.406;2023-03-12T05:11:53;2.58;;;1.10;;
25731;SDS011;13585;50.864;4.406;2023-03-12T05:14:18;2.25;;;1.40;;
25731;SDS011;13585;50.864;4.406;2023-03-12T05:16:44;2.13;;;1.38;;
25731;SDS011;13585;50.864;4.406;2023-03-12T05:19:10;1.70;;;1.02;;
25731;SDS011;13585;50.864;4.406;2023-03-12T05:21:35;2.50;;;1.30;;
25731;SDS011;13585;50.864;4.406;2023-03-12T05:24:03;2.22;;;1.48;;
25731;SDS011;13585;50.864;4.406;2023-03-12T05:26:30;2.25;;;0.88;;
25731;SDS011;13585;50.864;4.406;2023-03-12T05:28:57;3.35;;;1.40;;
25731;SDS011;13585;50.864;4.406;2023-03-12T05:31:23;1.55;;;1.08;;
25731;SDS011;13585;50.864;4.406;2023-03-12T05:33:50;1.58;;;1.30;;
25731;SDS011;13585;50.864;4.406;2023-03-12T05:36:16;2.08;;;1.30;;
25731;SDS011;13585;50.864;4.406;2023-03-12T05:38:42;1.38;;;0.98;;
25731;SDS011;13585;50.864;4.406;2023-03-12T05:41:08;1.35;;;1.10;;
25731;SDS011;13585;50.864;4.406;2023-03-12T05:43:41;1.10;;;1.00;;
25731;SDS011;13585;50.864;4.406;2023-03-12T05:46:08;1.52;;;0.98;;
25731;SDS011;13585;50.864;4.406;2023-03-12T05:48:34;2.17;;;1.38;;
25731;SDS011;13585;50.864;4.406;2023-03-12T05:50:59;2.58;;;1.20;;
25731;SDS011;13585;50.864;4.406;2023-03-12T05:53:25;1.10;;;1.00;;
25731;SDS011;13585;50.864;4.406;2023-03-12T05:55:51;1.50;;;1.10;;
25731;SDS011;13585;50.864;4.406;2023-03-12T05:58:16;2.05;;;1.23;;
25731;SDS011;13585;50.864;4.406;2023-03-12T06:00:43;1.10;;;1.00;;
25731;SDS011;13585;50.864;4.406;2023-03-12T06:03:09;2.80;;;1.30;;
25731;SDS011;13585;50.864;4.406;2023-03-12T06:05:35;2.15;;;1.10;;
25731;SDS011;13585;50.864;4.406;2023-03-12T06:08:02;1.58;;;1.05;;
25731;SDS011;13585;50.864;4.406;2023-03-12T06:10:28;2.25;;;1.13;;
25731;SDS011;13585;50.864;4.406;2023-03-12T06:12:54;1.15;;;1.00;;
25731;SDS011;13585;50.864;4.406;2023-03-12T06:15:21;1.02;;;0.90;;
25731;SDS011;13585;50.864;4.406;2023-03-12T06:17:46;2.10;;;1.00;;
25731;SDS011;13585;50.864;4.406;2023-03-12T06:20:12;1.17;;;0.88;;
25731;SDS011;13585;50.864;4.406;2023-03-12T06:22:38;1.20;;;1.10;;
25731;SDS011;13585;50.864;4.406;2023-03-12T06:25:04;2.38;;;1.10;;
25731;SDS011;13585;50.864;4.406;2023-03-12T06:27:30;1.90;;;0.90;;
25731;SDS011;13585;50.864;4.406;2023-03-12T06:29:56;1.05;;;0.95;;
25731;SDS011;13585;50.864;4.406;2023-03-12T06:32:21;1.60;;;1.10;;
25731;SDS011;13585;50.864;4.406;2023-03-12T06:34:47;1.55;;;1.15;;
25731;SDS011;13585;50.864;4.406;2023-03-12T06:37:13;2.08;;;1.00;;
25731;SDS011;13585;50.864;4.406;2023-03-12T06:39:39;1.42;;;1.02;;
25731;SDS011;13585;50.864;4.406;2023-03-12T06:42:04;1.20;;;0.88;;
25731;SDS011;13585;50.864;4.406;2023-03-12T06:44:30;2.58;;;1.23;;
25731;SDS011;13585;50.864;4.406;2023-03-12T06:46:57;1.60;;;1.17;;
25731;SDS011;13585;50.864;4.406;2023-03-12T06:49:23;1.35;;;0.95;;
25731;SDS011;13585;50.864;4.406;2023-03-12T06:51:48;1.45;;;1.10;;
25731;SDS011;13585;50.864;4.406;2023-03-12T06:54:14;1.25;;;0.90;;
25731;SDS011;13585;50.864;4.406;2023-03-12T06:56:40;1.38;;;1.05;;
25731;SDS011;13585;50.864;4.406;2023-03-12T06:59:06;2.13;;;1.10;;
25731;SDS011;13585;50.864;4.406;2023-03-12T07:01:32;2.08;;;1.20;;
25731;SDS011;13585;50.864;4.406;2023-03-12T07:03:57;1.30;;;1.10;;
25731;SDS011;13585;50.864;4.406;2023-03-12T07:06:23;3.08;;;1.10;;
25731;SDS011;13585;50.864;4.406;2023-03-12T07:08:49;1.63;;;1.10;;
25731;SDS011;13585;50.864;4.406;2023-03-12T07:11:15;1.45;;;1.00;;
25731;SDS011;13585;50.864;4.406;2023-03-12T07:13:41;1.17;;;1.00;;
25731;SDS011;13585;50.864;4.406;2023-03-12T07:16:07;3.15;;;1.10;;
25731;SDS011;13585;50.864;4.406;2023-03-12T07:18:33;2.83;;;1.10;;
25731;SDS011;13585;50.864;4.406;2023-03-12T07:20:59;0.95;;;0.80;;
25731;SDS011;13585;50.864;4.406;2023-03-12T07:23:25;3.50;;;1.20;;
25731;SDS011;13585;50.864;4.406;2023-03-12T07:25:50;1.17;;;0.93;;
25731;SDS011;13585;50.864;4.406;2023-03-12T07:28:16;1.42;;;1.00;;
25731;SDS011;13585;50.864;4.406;2023-03-12T07:30:43;1.95;;;1.08;;
25731;SDS011;13585;50.864;4.406;2023-03-12T07:33:14;1.37;;;0.97;;
25731;SDS011;13585;50.864;4.406;2023-03-12T07:35:41;5.07;;;1.30;;
25731;SDS011;13585;50.864;4.406;2023-03-12T07:38:07;1.48;;;0.93;;
25731;SDS011;13585;50.864;4.406;2023-03-12T07:40:32;1.55;;;0.90;;
25731;SDS011;13585;50.864;4.406;2023-03-12T07:43:00;1.65;;;0.90;;
25731;SDS011;13585;50.864;4.406;2023-03-12T07:45:25;1.40;;;0.98;;
25731;SDS011;13585;50.864;4.406;2023-03-12T07:47:51;1.90;;;0.95;;
25731;SDS011;13585;50.864;4.406;2023-03-12T07:50:17;1.83;;;1.17;;
25731;SDS011;13585;50.864;4.406;2023-03-12T07:52:43;1.13;;;0.90;;
25731;SDS011;13585;50.864;4.406;2023-03-12T07:55:10;1.08;;;0.80;;
25731;SDS011;13585;50.864;4.406;2023-03-12T07:57:36;1.42;;;0.90;;
25731;SDS011;13585;50.864;4.406;2023-03-12T08:00:02;1.35;;;1.00;;
25731;SDS011;13585;50.864;4.406;2023-03-12T08:02:31;1.27;;;1.00;;
25731;SDS011;13585;50.864;4.406;2023-03-12T08:04:58;1.90;;;1.10;;
25731;SDS011;13585;50.864;4.406;2023-03-12T08:07:23;2.58;;;1.20;;
25731;SDS011;13585;50.864;4.406;2023-03-12T08:09:49;2.17;;;1.05;;
25731;SDS011;13585;50.864;4.406;2023-03-12T08:12:15;1.20;;;1.00;;
25731;SDS011;13585;50.864;4.406;2023-03-12T08:14:41;2.65;;;1.23;;
25731;SDS011;13585;50.864;4.406;2023-03-12T08:17:07;2.83;;;1.23;;
25731;SDS011;13585;50.864;4.406;2023-03-12T08:19:32;1.95;;;1.10;;
25731;SDS011;13585;50.864;4.406;2023-03-12T08:21:58;2.03;;;1.02;;
25731;SDS011;13585;50.864;4.406;2023-03-12T08:24:23;2.25;;;1.20;;
25731;SDS011;13585;50.864;4.406;2023-03-12T08:26:49;2.67;;;1.30;;
25731;SDS011;13585;50.864;4.406;2023-03-12T08:29:15;3.92;;;1.30;;
25731;SDS011;13585;50.864;4.406;2023-03-12T08:31:41;2.90;;;1.02;;
25731;SDS011;13585;50.864;4.406;2023-03-12T08:34:06;2.90;;;1.27;;
25731;SDS011;13585;50.864;4.406;2023-03-12T08:36:32;2.83;;;1.17;;
25731;SDS011;13585;50.864;4.406;2023-03-12T08:38:57;2.63;;;1.00;;
25731;SDS011;13585;50.864;4.406;2023-03-12T08:41:23;3.05;;;1.17;;
25731;SDS011;13585;50.864;4.406;2023-03-12T08:43:49;3.22;;;1.23;;
25731;SDS011;13585;50.864;4.406;2023-03-12T08:46:14;3.78;;;1.38;;
25731;SDS011;13585;50.864;4.406;2023-03-12T08:48:40;2.80;;;1.35;;
25731;SDS011;13585;50.864;4.406;2023-03-12T08:51:06;4.97;;;1.30;;
25731;SDS011;13585;50.864;4.406;2023-03-12T08:53:32;4.03;;;1.42;;
25731;SDS011;13585;50.864;4.406;2023-03-12T08:56:00;4.80;;;1.50;;
25731;SDS011;13585;50.864;4.406;2023-03-12T08:58:27;3.58;;;1.60;;
25731;SDS011;13585;50.864;4.406;2023-03-12T09:00:54;2.72;;;1.20;;
25731;SDS011;13585;50.864;4.406;2023-03-12T09:03:21;3.70;;;1.80;;
25731;SDS011;13585;50.864;4.406;2023-03-12T09:05:47;3.63;;;1.63;;
25731;SDS011;13585;50.864;4.406;2023-03-12T09:08:14;4.28;;;1.67;;
25731;SDS011;13585;50.864;4.406;2023-03-12T09:10:45;4.03;;;1.40;;
25731;SDS011;13585;50.864;4.406;2023-03-12T09:15:38;5.25;;;2.00;;
25731;SDS011;13585;50.864;4.406;2023-03-12T09:18:04;5.22;;;1.90;;
25731;SDS011;13585;50.864;4.406;2023-03-12T09:20:30;4.28;;;1.70;;
25731;SDS011;13585;50.864;4.406;2023-03-12T09:22:56;7.13;;;1.60;;
25731;SDS011;13585;50.864;4.406;2023-03-12T09:25:21;3.53;;;1.67;;
25731;SDS011;13585;50.864;4.406;2023-03-12T09:27:47;3.67;;;1.40;;
25731;SDS011;13585;50.864;4.406;2023-03-12T09:30:15;5.30;;;1.90;;
25731;SDS011;13585;50.864;4.406;2023-03-12T09:32:44;5.50;;;1.73;;
25731;SDS011;13585;50.864;4.406;2023-03-12T09:35:11;6.28;;;2.00;;
25731;SDS011;13585;50.864;4.406;2023-03-12T09:37:38;4.32;;;1.67;;
25731;SDS011;13585;50.864;4.406;2023-03-12T09:40:04;4.13;;;1.65;;
25731;SDS011;13585;50.864;4.406;2023-03-12T09:42:39;5.63;;;2.17;;
25731;SDS011;13585;50.864;4.406;2023-03-12T09:45:13;6.28;;;1.60;;
25731;SDS011;13585;50.864;4.406;2023-03-12T09:47:48;3.83;;;1.60;;
25731;SDS011;13585;50.864;4.406;2023-03-12T09:50:26;5.80;;;1.75;;
25731;SDS011;13585;50.864;4.406;2023-03-12T09:53:10;4.95;;;1.77;;
25731;SDS011;13585;50.864;4.406;2023-03-12T09:55:46;5.80;;;1.85;;
25731;SDS011;13585;50.864;4.406;2023-03-12T09:58:21;6.60;;;1.98;;
25731;SDS011;13585;50.864;4.406;2023-03-12T10:00:54;6.03;;;2.13;;
25731;SDS011;13585;50.864;4.406;2023-03-12T10:04:00;5.75;;;1.73;;
25731;SDS011;13585;50.864;4.406;2023-03-12T10:06:47;6.57;;;1.85;;
25731;SDS011;13585;50.864;4.406;2023-03-12T10:10:00;6.32;;;1.98;;
25731;SDS011;13585;50.864;4.406;2023-03-12T10:12:21;6.57;;;2.08;;
25731;SDS011;13585;50.864;4.406;2023-03-12T10:26:28;9.27;;;2.25;;
25731;SDS011;13585;50.864;4.406;2023-03-12T10:29:01;7.15;;;2.25;;
25731;SDS011;13585;50.864;4.406;2023-03-12T10:31:59;7.43;;;2.35;;
25731;SDS011;13585;50.864;4.406;2023-03-12T10:37:23;9.52;;;2.88;;
25731;SDS011;13585;50.864;4.406;2023-03-12T10:39:49;6.90;;;2.13;;
25731;SDS011;13585;50.864;4.406;2023-03-12T10:42:18;9.73;;;2.53;;
25731;SDS011;13585;50.864;4.406;2023-03-12T10:44:46;7.35;;;2.28;;
25731;SDS011;13585;50.864;4.406;2023-03-12T10:47:26;7.05;;;2.25;;
25731;SDS011;13585;50.864;4.406;2023-03-12T10:52:51;11.85;;;2.17;;
25731;SDS011;13585;50.864;4.406;2023-03-12T10:55:33;8.10;;;2.38;;
25731;SDS011;13585;50.864;4.406;2023-03-12T10:57:59;6.15;;;2.45;;
25731;SDS011;13585;50.864;4.406;2023-03-12T11:00:25;8.23;;;2.35;;
25731;SDS011;13585;50.864;4.406;2023-03-12T11:05:28;9.00;;;2.05;;
25731;SDS011;13585;50.864;4.406;2023-03-12T11:08:20;9.18;;;2.28;;
25731;SDS011;13585;50.864;4.406;2023-03-12T11:10:51;8.30;;;2.17;;
25731;SDS011;13585;50.864;4.406;2023-03-12T11:13:20;11.10;;;2.47;;
25731;SDS011;13585;50.864;4.406;2023-03-12T11:15:48;8.57;;;2.13;;
25731;SDS011;13585;50.864;4.406;2023-03-12T11:21:25;7.47;;;2.10;;
25731;SDS011;13585;50.864;4.406;2023-03-12T11:26:24;10.35;;;2.83;;
25731;SDS011;13585;50.864;4.406;2023-03-12T11:29:00;10.20;;;2.50;;
25731;SDS011;13585;50.864;4.406;2023-03-12T11:31:31;7.90;;;2.33;;
25731;SDS011;13585;50.864;4.406;2023-03-12T11:34:13;8.45;;;2.33;;
25731;SDS011;13585;50.864;4.406;2023-03-12T12:04:32;11.00;;;2.85;;
25731;SDS011;13585;50.864;4.406;2023-03-12T12:17:43;9.77;;;2.97;;
25731;SDS011;13585;50.864;4.406;2023-03-12T12:20:23;8.90;;;2.80;;
25731;SDS011;13585;50.864;4.406;2023-03-12T12:23:00;9.50;;;3.17;;
25731;SDS011;13585;50.864;4.406;2023-03-12T12:31:28;10.50;;;2.75;;
25731;SDS011;13585;50.864;4.406;2023-03-12T12:34:23;10.05;;;2.97;;
25731;SDS011;13585;50.864;4.406;2023-03-12T12:43:15;11.52;;;2.90;;
25731;SDS011;13585;50.864;4.406;2023-03-12T12:45:44;12.65;;;3.03;;
25731;SDS011;13585;50.864;4.406;2023-03-12T12:48:16;10.85;;;2.95;;
25731;SDS011;13585;50.864;4.406;2023-03-12T12:50:45;13.77;;;3.00;;
25731;SDS011;13585;50.864;4.406;2023-03-12T13:00:49;14.95;;;3.10;;
25731;SDS011;13585;50.864;4.406;2023-03-12T13:03:22;13.50;;;3.22;;
25731;SDS011;13585;50.864;4.406;2023-03-12T13:05:59;9.90;;;2.65;;
25731;SDS011;13585;50.864;4.406;2023-03-12T13:08:34;8.55;;;3.03;;
25731;SDS011;13585;50.864;4.406;2023-03-12T13:11:22;8.77;;;2.33;;
25731;SDS011;13585;50.864;4.406;2023-03-12T13:14:20;8.88;;;2.72;;
25731;SDS011;13585;50.864;4.406;2023-03-12T13:19:59;9.30;;;2.80;;
25731;SDS011;13585;50.864;4.406;2023-03-12T13:28:28;11.15;;;2.88;;
25731;SDS011;13585;50.864;4.406;2023-03-12T13:30:56;11.70;;;3.05;;
25731;SDS011;13585;50.864;4.406;2023-03-12T13:33:44;9.80;;;2.95;;
25731;SDS011;13585;50.864;4.406;2023-03-12T13:39:16;10.40;;;3.55;;
25731;SDS011;13585;50.864;4.406;2023-03-12T13:41:48;10.10;;;2.38;;
25731;SDS011;13585;50.864;4.406;2023-03-12T13:52:49;9.93;;;2.50;;
25731;SDS011;13585;50.864;4.406;2023-03-12T13:55:31;8.23;;;2.65;;
25731;SDS011;13585;50.864;4.406;2023-03-12T14:00:52;10.63;;;2.95;;
25731;SDS011;13585;50.864;4.406;2023-03-12T14:03:22;11.75;;;2.97;;
25731;SDS011;13585;50.864;4.406;2023-03-12T14:06:09;10.13;;;2.67;;
25731;SDS011;13585;50.864;4.406;2023-03-12T14:17:12;9.27;;;2.88;;
25731;SDS011;13585;50.864;4.406;2023-03-12T14:19:45;9.43;;;2.83;;
25731;SDS011;13585;50.864;4.406;2023-03-12T14:22:41;11.15;;;2.63;;
25731;SDS011;13585;50.864;4.406;2023-03-12T14:25:15;11.13;;;3.15;;
25731;SDS011;13585;50.864;4.406;2023-03-12T14:27:46;7.65;;;2.38;;
25731;SDS011;13585;50.864;4.406;2023-03-12T14:30:22;9.68;;;2.88;;
25731;SDS011;13585;50.864;4.406;2023-03-12T14:32:54;11.57;;;3.33;;
25731;SDS011;13585;50.864;4.406;2023-03-12T14:35:24;10.63;;;2.90;;
25731;SDS011;13585;50.864;4.406;2023-03-12T14:37:55;9.27;;;2.90;;
25731;SDS011;13585;50.864;4.406;2023-03-12T14:40:43;7.85;;;2.65;;
25731;SDS011;13585;50.864;4.406;2023-03-12T14:43:24;8.90;;;2.67;;
25731;SDS011;13585;50.864;4.406;2023-03-12T14:45:56;10.90;;;2.63;;
25731;SDS011;13585;50.864;4.406;2023-03-12T14:48:26;7.28;;;2.83;;
25731;SDS011;13585;50.864;4.406;2023-03-12T14:50:57;11.63;;;3.28;;
25731;SDS011;13585;50.864;4.406;2023-03-12T14:53:28;8.88;;;2.67;;
25731;SDS011;13585;50.864;4.406;2023-03-12T14:55:59;9.32;;;2.95;;
25731;SDS011;13585;50.864;4.406;2023-03-12T14:58:34;13.15;;;3.05;;
25731;SDS011;13585;50.864;4.406;2023-03-12T15:01:20;7.97;;;2.40;;
25731;SDS011;13585;50.864;4.406;2023-03-12T15:04:00;11.20;;;2.67;;
25731;SDS011;13585;50.864;4.406;2023-03-12T15:08:59;10.93;;;2.80;;
25731;SDS011;13585;50.864;4.406;2023-03-12T15:11:28;11.38;;;2.72;;
25731;SDS011;13585;50.864;4.406;2023-03-12T15:13:56;8.95;;;2.65;;
25731;SDS011;13585;50.864;4.406;2023-03-12T15:16:32;8.30;;;2.70;;
25731;SDS011;13585;50.864;4.406;2023-03-12T15:18:58;11.70;;;3.00;;
25731;SDS011;13585;50.864;4.406;2023-03-12T15:21:26;7.47;;;2.33;;
25731;SDS011;13585;50.864;4.406;2023-03-12T15:23:52;6.53;;;2.63;;
25731;SDS011;13585;50.864;4.406;2023-03-12T15:28:53;10.30;;;3.03;;
25731;SDS011;13585;50.864;4.406;2023-03-12T15:31:23;12.05;;;2.40;;
25731;SDS011;13585;50.864;4.406;2023-03-12T15:34:02;8.20;;;2.50;;
25731;SDS011;13585;50.864;4.406;2023-03-12T15:36:30;11.18;;;2.70;;
25731;SDS011;13585;50.864;4.406;2023-03-12T15:41:44;9.25;;;2.58;;
25731;SDS011;13585;50.864;4.406;2023-03-12T15:44:20;9.30;;;2.65;;
25731;SDS011;13585;50.864;4.406;2023-03-12T15:46:51;9.25;;;2.67;;
25731;SDS011;13585;50.864;4.406;2023-03-12T15:49:26;9.52;;;2.67;;
25731;SDS011;13585;50.864;4.406;2023-03-12T15:54:27;10.75;;;2.55;;
25731;SDS011;13585;50.864;4.406;2023-03-12T15:56:53;9.23;;;2.63;;
25731;SDS011;13585;50.864;4.406;2023-03-12T15:59:35;10.63;;;3.42;;
25731;SDS011;13585;50.864;4.406;2023-03-12T16:02:00;9.18;;;3.05;;
25731;SDS011;13585;50.864;4.406;2023-03-12T16:04:26;8.60;;;2.80;;
25731;SDS011;13585;50.864;4.406;2023-03-12T16:06:51;8.43;;;2.67;;
25731;SDS011;13585;50.864;4.406;2023-03-12T16:09:24;8.88;;;2.72;;
25731;SDS011;13585;50.864;4.406;2023-03-12T16:11:51;8.40;;;2.45;;
25731;SDS011;13585;50.864;4.406;2023-03-12T16:16:54;6.22;;;2.58;;
25731;SDS011;13585;50.864;4.406;2023-03-12T16:19:20;9.35;;;2.67;;
25731;SDS011;13585;50.864;4.406;2023-03-12T16:21:47;10.02;;;2.50;;
25731;SDS011;13585;50.864;4.406;2023-03-12T16:24:14;11.73;;;2.70;;
25731;SDS011;13585;50.864;4.406;2023-03-12T16:26:47;10.25;;;2.85;;
25731;SDS011;13585;50.864;4.406;2023-03-12T16:29:16;10.27;;;2.53;;
25731;SDS011;13585;50.864;4.406;2023-03-12T16:31:43;6.55;;;2.25;;
25731;SDS011;13585;50.864;4.406;2023-03-12T16:34:09;8.93;;;2.72;;
25731;SDS011;13585;50.864;4.406;2023-03-12T16:36:36;9.23;;;2.70;;
25731;SDS011;13585;50.864;4.406;2023-03-12T16:39:02;8.20;;;2.30;;
25731;SDS011;13585;50.864;4.406;2023-03-12T16:41:28;8.00;;;2.42;;
25731;SDS011;13585;50.864;4.406;2023-03-12T16:43:56;10.82;;;2.78;;
25731;SDS011;13585;50.864;4.406;2023-03-12T16:46:28;13.18;;;2.97;;
25731;SDS011;13585;50.864;4.406;2023-03-12T16:48:55;11.15;;;3.00;;
25731;SDS011;13585;50.864;4.406;2023-03-12T16:51:21;10.30;;;2.70;;
25731;SDS011;13585;50.864;4.406;2023-03-12T16:53:47;15.65;;;3.55;;
25731;SDS011;13585;50.864;4.406;2023-03-12T16:56:20;9.80;;;2.92;;
25731;SDS011;13585;50.864;4.406;2023-03-12T16:58:48;12.05;;;2.35;;
25731;SDS011;13585;50.864;4.406;2023-03-12T17:01:15;12.23;;;3.55;;
25731;SDS011;13585;50.864;4.406;2023-03-12T17:03:44;15.52;;;3.30;;
25731;SDS011;13585;50.864;4.406;2023-03-12T17:06:19;16.73;;;3.65;;
25731;SDS011;13585;50.864;4.406;2023-03-12T17:08:57;16.50;;;3.60;;